Time;durP1;ratioP1;P1;durP2;ratioP2;P2;SDS_P1;SDS_P2;PMS_P1;PMS_P2;Temp;Humidity;BMP_temperature;BMP_pressure;BME280_temperature;BME280_humidity;BME280_pressure;Samples;Min_cycle;Max_cycle;Signal;HPM_P1;HPM_P2
2022/04/24 00:00:08;;;;;;;0.10;0.10;;;11.10;99.90;12.80;88045.00;;;;4992302;28;20246;-70
2022/04/24 00:02:36;;;;;;;0.10;0.10;;;11.10;99.90;12.80;88045.00;;;;4992115;28;20200;-70
2022/04/24 00:05:07;;;;;;;0.10;0.10;;;11.00;99.90;12.80;88045.00;;;;4991763;28;20793;-70
2022/04/24 00:07:35;;;;;;;0.10;0.10;;;11.00;99.90;12.80;88045.00;;;;4993318;28;20204;-70
2022/04/24 00:10:05;;;;;;;0.10;0.10;;;11.00;99.90;12.80;88045.00;;;;4994399;28;20211;-69
2022/04/24 00:12:33;;;;;;;0.10;0.10;;;10.90;99.90;12.80;88045.00;;;;4994986;28;20196;-69
2022/04/24 00:15:01;;;;;;;0.10;0.10;;;10.90;99.90;12.80;88045.00;;;;4993975;28;20216;-70
2022/04/24 00:17:29;;;;;;;0.10;0.10;;;10.90;99.90;12.80;88045.00;;;;4994120;28;20193;-70
2022/04/24 00:19:57;;;;;;;0.10;0.10;;;10.80;99.90;12.80;88045.00;;;;4998191;28;20713;-70
2022/04/24 00:22:26;;;;;;;0.10;0.10;;;10.80;99.90;12.80;88045.00;;;;4995985;28;20243;-69
2022/04/24 00:24:54;;;;;;;0.10;0.10;;;10.80;99.90;12.80;88045.00;;;;4996157;28;20228;-69
2022/04/24 00:27:22;;;;;;;0.00;0.00;;;10.80;99.90;12.80;88045.00;;;;4993365;28;20196;-69
2022/04/24 00:29:50;;;;;;;0.10;0.10;;;10.80;99.90;12.80;88045.00;;;;4995278;28;20200;-69
2022/04/24 00:32:18;;;;;;;0.10;0.10;;;10.80;99.90;12.80;88045.00;;;;4994323;28;20204;-69
2022/04/24 00:34:46;;;;;;;0.10;0.10;;;10.80;99.90;12.80;88045.00;;;;4994987;28;20580;-68
2022/04/24 00:37:14;;;;;;;0.10;0.10;;;10.70;99.90;12.80;88045.00;;;;4991208;28;20200;-69
2022/04/24 00:39:43;;;;;;;0.10;0.10;;;10.70;99.90;12.80;88045.00;;;;4979081;28;20259;-69
2022/04/24 00:42:11;;;;;;;0.10;0.10;;;10.70;1.00;12.80;88045.00;;;;4979536;28;20222;-68
2022/04/24 00:44:39;;;;;;;0.10;0.10;;;10.70;1.00;12.80;88045.00;;;;4994826;28;20705;-68
2022/04/24 00:47:26;;;;;;;0.10;0.10;;;10.70;1.00;12.80;88045.00;;;;4993524;28;20670;-69
2022/04/24 00:49:54;;;;;;;0.08;0.08;;;10.60;1.00;12.80;88045.00;;;;4994943;28;20212;-68
2022/04/24 00:52:23;;;;;;;0.10;0.10;;;10.60;1.00;12.80;88045.00;;;;4990710;28;20188;-68
2022/04/24 00:54:52;;;;;;;0.10;0.10;;;10.60;1.00;12.80;88045.00;;;;4994902;28;20779;-68
2022/04/24 00:57:20;;;;;;;0.00;0.00;;;10.60;1.00;12.80;88045.00;;;;4990565;28;20200;-68
2022/04/24 00:59:48;;;;;;;0.10;0.10;;;10.60;1.00;12.80;88045.00;;;;4980814;28;20224;-68
2022/04/24 01:02:16;;;;;;;0.10;0.10;;;10.60;1.00;12.80;88045.00;;;;4989787;28;20208;-68
2022/04/24 01:04:44;;;;;;;0.10;0.10;;;10.60;1.00;12.80;88045.00;;;;4994658;28;20225;-68
2022/04/24 01:07:12;;;;;;;0.10;0.10;;;10.50;1.00;12.80;88045.00;;;;4994350;28;20196;-68
2022/04/24 01:09:40;;;;;;;0.10;0.10;;;10.50;1.00;12.80;88045.00;;;;4984805;28;20231;-68
2022/04/24 01:12:11;;;;;;;0.10;0.10;;;10.50;1.00;12.80;88045.00;;;;4993141;28;20196;-68
2022/04/24 01:14:39;;;;;;;0.10;0.10;;;10.40;1.00;12.80;88045.00;;;;4994008;28;20224;-68
2022/04/24 01:17:07;;;;;;;0.10;0.10;;;10.40;12.10;12.80;88045.00;;;;4989421;28;20292;-69
2022/04/24 01:19:36;;;;;;;0.10;0.10;;;10.40;1.00;12.80;88045.00;;;;4974855;28;20217;-69
2022/04/24 01:22:05;;;;;;;0.10;0.10;;;10.40;77.30;12.80;88045.00;;;;4993178;28;20204;-69
2022/04/24 01:24:33;;;;;;;0.10;0.10;;;10.40;93.30;12.80;88045.00;;;;4991135;28;20247;-71
2022/04/24 01:27:02;;;;;;;0.10;0.10;;;10.30;67.10;12.80;88045.00;;;;4994451;28;20602;-71
2022/04/24 01:29:29;;;;;;;0.10;0.10;;;10.30;1.00;12.80;88045.00;;;;4981420;28;20196;-70
2022/04/24 01:31:58;;;;;;;0.10;0.10;;;10.30;99.90;12.80;88045.00;;;;4993207;28;20208;-70
2022/04/24 01:34:26;;;;;;;0.10;0.10;;;10.30;99.90;12.80;88045.00;;;;4991330;28;20494;-69
2022/04/24 01:36:53;;;;;;;0.10;0.10;;;10.30;99.90;12.80;88045.00;;;;4987559;28;20188;-70
2022/04/24 01:39:23;;;;;;;0.10;0.10;;;10.20;99.90;12.80;88045.00;;;;4980310;28;20761;-70
2022/04/24 01:41:51;;;;;;;0.10;0.10;;;10.20;99.90;12.80;88045.00;;;;4989924;28;20216;-70
2022/04/24 01:44:19;;;;;;;0.10;0.10;;;10.20;99.90;12.80;88045.00;;;;4986131;28;20690;-69
2022/04/24 01:46:47;;;;;;;0.10;0.10;;;10.10;99.90;12.80;88045.00;;;;4992365;28;20973;-69
2022/04/24 01:49:15;;;;;;;0.10;0.10;;;10.10;99.90;12.80;88045.00;;;;4983014;28;20255;-69
2022/04/24 01:51:44;;;;;;;0.10;0.10;;;10.00;1.00;12.80;88045.00;;;;4991149;28;20267;-69
2022/04/24 01:54:12;;;;;;;0.05;0.05;;;9.90;1.00;12.80;88045.00;;;;4992407;28;20308;-69
2022/04/24 01:56:42;;;;;;;0.10;0.10;;;9.80;91.90;12.80;88045.00;;;;4991702;28;20203;-69
2022/04/24 01:59:09;;;;;;;0.10;0.10;;;9.80;17.90;12.80;88045.00;;;;4989616;28;20189;-70
2022/04/24 02:01:37;;;;;;;0.10;0.10;;;9.80;99.90;12.80;88045.00;;;;4990951;28;20231;-69
2022/04/24 02:04:06;;;;;;;0.00;0.00;;;9.80;1.00;12.80;88045.00;;;;4985253;28;20802;-70
2022/04/24 02:06:34;;;;;;;0.10;0.10;;;9.80;1.00;12.80;88045.00;;;;4993072;28;20271;-69
2022/04/24 02:09:02;;;;;;;0.10;0.10;;;9.90;1.00;12.80;88045.00;;;;4995023;28;21029;-69
2022/04/24 02:11:30;;;;;;;0.10;0.10;;;10.00;1.00;12.80;88045.00;;;;4992930;28;20208;-69
2022/04/24 02:13:59;;;;;;;0.10;0.10;;;10.10;1.00;12.80;88045.00;;;;4994122;28;20733;-70
2022/04/24 02:16:27;;;;;;;0.10;0.10;;;10.10;1.00;12.80;88045.00;;;;4988580;28;20653;-70
2022/04/24 02:18:55;;;;;;;0.10;0.10;;;10.10;1.00;12.80;88045.00;;;;4990544;28;20677;-73
2022/04/24 02:21:23;;;;;;;0.10;0.10;;;10.10;1.00;12.80;88045.00;;;;4994462;28;20228;-71
2022/04/24 02:23:51;;;;;;;0.10;0.10;;;10.00;1.00;12.80;88045.00;;;;5002218;28;20239;-69
2022/04/24 02:26:19;;;;;;;0.10;0.10;;;9.90;1.00;12.80;88045.00;;;;5003820;28;20220;-70
2022/04/24 02:28:47;;;;;;;0.03;0.03;;;9.90;1.00;12.80;88045.00;;;;4993953;28;20196;-70
2022/04/24 02:31:17;;;;;;;0.10;0.10;;;9.80;99.90;12.80;88045.00;;;;4993192;28;20681;-70
2022/04/24 02:33:45;;;;;;;0.10;0.10;;;9.70;1.00;12.80;88045.00;;;;4993499;28;20717;-71
2022/04/24 02:36:13;;;;;;;0.10;0.10;;;9.50;1.00;12.80;88045.00;;;;4993123;28;20305;-69
2022/04/24 02:38:41;;;;;;;0.10;0.10;;;9.30;99.90;12.80;88045.00;;;;4993687;28;20683;-71
2022/04/24 02:41:10;;;;;;;0.10;0.10;;;9.30;1.00;12.80;88045.00;;;;4992947;28;20348;-71
2022/04/24 02:43:37;;;;;;;0.00;0.00;;;9.40;99.90;12.80;88045.00;;;;4974406;28;20244;-72
2022/04/24 02:46:05;;;;;;;0.10;0.10;;;9.50;99.90;12.80;88045.00;;;;5006326;28;20207;-69
2022/04/24 02:48:35;;;;;;;0.10;0.10;;;9.60;99.90;12.80;88045.00;;;;4994070;28;20200;-70
2022/04/24 02:51:03;;;;;;;0.10;0.10;;;9.60;99.90;12.80;88045.00;;;;4992407;28;20207;-69
2022/04/24 02:53:31;;;;;;;0.10;0.10;;;9.60;1.00;12.80;88045.00;;;;4990049;28;20204;-69
2022/04/24 02:55:59;;;;;;;0.10;0.10;;;9.60;1.00;12.80;88045.00;;;;4996554;28;20613;-70
2022/04/24 02:58:27;;;;;;;0.10;0.10;;;9.50;1.00;12.80;88045.00;;;;4997767;28;20204;-69
2022/04/24 03:00:56;;;;;;;0.10;0.10;;;9.60;1.00;12.80;88045.00;;;;4999786;28;20220;-70
2022/04/24 03:03:25;;;;;;;0.00;0.00;;;9.60;99.90;12.80;88045.00;;;;4990963;28;20279;-69
2022/04/24 03:05:54;;;;;;;0.10;0.10;;;9.60;1.00;12.80;88045.00;;;;4991453;28;20204;-69
2022/04/24 03:08:25;;;;;;;0.10;0.10;;;9.60;1.00;12.80;88045.00;;;;4995218;28;20188;-69
2022/04/24 03:10:53;;;;;;;0.10;0.10;;;9.50;29.20;12.80;88045.00;;;;4990837;28;20196;-70
2022/04/24 03:13:21;;;;;;;0.10;0.10;;;9.30;1.00;12.80;88045.00;;;;4986763;28;20200;-70
2022/04/24 03:15:49;;;;;;;0.00;0.00;;;9.30;1.00;12.80;88045.00;;;;4992596;28;20204;-70
2022/04/24 03:18:17;;;;;;;0.10;0.10;;;9.30;1.00;12.80;88045.00;;;;4973926;28;20192;-70
2022/04/24 03:20:45;;;;;;;0.10;0.10;;;9.30;1.00;12.80;88045.00;;;;4984535;28;20227;-70
2022/04/24 03:23:14;;;;;;;0.10;0.10;;;9.20;1.00;12.80;88045.00;;;;4989675;28;20200;-70
2022/04/24 03:25:42;;;;;;;0.10;0.10;;;9.10;99.90;12.80;88045.00;;;;4988778;28;20205;-69
2022/04/24 03:28:11;;;;;;;0.10;0.10;;;9.10;1.00;12.80;88045.00;;;;4985353;28;20197;-71
2022/04/24 03:30:40;;;;;;;0.10;0.10;;;9.00;1.00;12.80;88045.00;;;;4993069;28;20213;-72
2022/04/24 03:33:08;;;;;;;0.10;0.10;;;8.90;1.00;12.80;88045.00;;;;4975937;28;20213;-70
2022/04/24 03:35:36;;;;;;;0.10;0.10;;;8.90;99.90;12.80;88045.00;;;;4985790;28;20617;-72
2022/04/24 03:38:04;;;;;;;0.10;0.10;;;8.90;99.90;12.80;88045.00;;;;4992585;28;20212;-71
2022/04/24 03:40:34;;;;;;;0.10;0.10;;;9.00;99.90;12.80;88045.00;;;;4988392;28;20247;-72
2022/04/24 03:43:02;;;;;;;0.10;0.10;;;9.10;1.00;12.80;88045.00;;;;4976053;28;20266;-71
2022/04/24 03:45:30;;;;;;;0.10;0.10;;;9.20;1.00;12.80;88045.00;;;;4991342;28;20235;-71
2022/04/24 03:47:58;;;;;;;0.10;0.10;;;9.20;1.00;12.80;88045.00;;;;4992074;28;20211;-71
2022/04/24 03:50:26;;;;;;;0.10;0.10;;;9.30;1.00;12.80;88045.00;;;;4983918;28;20207;-70
2022/04/24 03:52:54;;;;;;;0.10;0.10;;;9.40;1.00;12.80;88045.00;;;;4991090;28;20192;-71
2022/04/24 03:55:22;;;;;;;0.10;0.10;;;9.40;99.90;12.80;88045.00;;;;4997637;28;20212;-70
2022/04/24 03:57:51;;;;;;;0.10;0.10;;;9.40;99.90;12.80;88045.00;;;;4993655;28;20551;-68
2022/04/24 04:00:20;;;;;;;0.10;0.10;;;9.50;99.90;12.80;88045.00;;;;4984523;28;20666;-71
2022/04/24 04:02:48;;;;;;;0.10;0.10;;;9.50;99.90;12.80;88045.00;;;;4998496;28;20224;-68
2022/04/24 04:05:17;;;;;;;0.10;0.10;;;9.50;99.90;12.80;88045.00;;;;4998186;28;20223;-70
2022/04/24 04:07:45;;;;;;;0.10;0.10;;;9.50;99.90;12.80;88045.00;;;;4998136;28;20207;-69
2022/04/24 04:10:13;;;;;;;0.10;0.10;;;9.50;10.60;12.80;88045.00;;;;4998022;28;20196;-69
2022/04/24 04:12:41;;;;;;;0.10;0.10;;;9.50;1.00;12.80;88045.00;;;;4998748;28;20216;-70
2022/04/24 04:15:11;;;;;;;0.10;0.10;;;9.50;41.70;12.80;88045.00;;;;4998150;28;20216;-70
2022/04/24 04:17:39;;;;;;;0.10;0.10;;;9.60;99.90;12.80;88045.00;;;;4998534;28;20227;-69
2022/04/24 04:20:11;;;;;;;0.10;0.10;;;9.60;1.00;12.80;88045.00;;;;4998959;28;20574;-70
2022/04/24 04:22:51;;;;;;;0.10;0.10;;;9.60;1.00;12.80;88045.00;;;;4998403;28;20228;-70
2022/04/24 04:25:21;;;;;;;0.10;0.10;;;9.70;1.00;12.80;88045.00;;;;4998127;28;20220;-71
2022/04/24 04:27:49;;;;;;;0.10;0.10;;;9.70;99.90;12.80;88045.00;;;;4995557;28;20284;-71
2022/04/24 04:30:19;;;;;;;0.10;0.10;;;9.70;99.90;12.80;88045.00;;;;4997906;28;20223;-71
2022/04/24 04:32:48;;;;;;;0.10;0.10;;;9.70;18.10;12.80;88045.00;;;;4998164;28;20208;-69
2022/04/24 04:35:16;;;;;;;0.10;0.10;;;9.70;99.90;12.80;88045.00;;;;4996289;28;20227;-69
2022/04/24 04:37:44;;;;;;;0.10;0.10;;;9.70;1.00;12.80;88045.00;;;;4997455;28;20192;-69
2022/04/24 04:40:12;;;;;;;0.10;0.10;;;9.70;1.00;12.80;88045.00;;;;4997779;28;20199;-72
2022/04/24 04:42:41;;;;;;;0.10;0.10;;;9.80;1.00;12.80;88045.00;;;;4998263;28;20220;-69
2022/04/24 04:45:09;;;;;;;0.10;0.10;;;9.70;1.00;12.80;88045.00;;;;4998086;28;20223;-69
2022/04/24 04:47:39;;;;;;;0.10;0.10;;;9.80;1.00;12.80;88045.00;;;;4998070;28;20212;-70
2022/04/24 04:50:08;;;;;;;0.10;0.10;;;9.80;1.00;12.80;88045.00;;;;4998243;28;20615;-69
2022/04/24 04:52:37;;;;;;;0.10;0.10;;;9.80;1.00;12.80;88045.00;;;;4997092;28;20192;-68
2022/04/24 04:55:06;;;;;;;0.10;0.10;;;9.80;99.90;12.80;88045.00;;;;4997725;28;20220;-69
2022/04/24 04:57:34;;;;;;;0.10;0.10;;;9.80;99.90;12.80;88045.00;;;;4989219;28;20219;-69
2022/04/24 05:00:05;;;;;;;0.10;0.10;;;9.90;99.90;12.80;88045.00;;;;4985761;28;20215;-69
2022/04/24 05:02:38;;;;;;;0.10;0.10;;;9.90;99.90;12.80;88045.00;;;;4997877;28;20310;-68
2022/04/24 05:05:09;;;;;;;0.10;0.10;;;10.00;99.90;12.80;88045.00;;;;4995818;28;20237;-69
2022/04/24 05:07:38;;;;;;;0.10;0.10;;;10.00;1.00;12.80;88045.00;;;;4994000;28;20196;-69
2022/04/24 05:10:08;;;;;;;0.10;0.10;;;10.00;1.00;12.80;88045.00;;;;4994423;28;20203;-69
2022/04/24 05:12:36;;;;;;;0.10;0.10;;;10.00;1.00;12.80;88045.00;;;;4994623;28;20196;-69
2022/04/24 05:15:08;;;;;;;0.10;0.10;;;10.10;1.00;12.80;88045.00;;;;4988905;28;20239;-69
2022/04/24 05:17:38;;;;;;;0.03;0.03;;;10.10;1.00;12.80;88045.00;;;;4986260;28;20536;-69
2022/04/24 05:20:10;;;;;;;0.10;0.10;;;10.20;1.00;12.80;88045.00;;;;4994776;28;20196;-69
2022/04/24 05:22:39;;;;;;;0.10;0.10;;;10.20;1.00;12.80;88045.00;;;;4994424;28;20212;-69
2022/04/24 05:25:09;;;;;;;0.10;0.10;;;10.30;1.00;12.80;88045.00;;;;4994070;28;20623;-69
2022/04/24 05:27:38;;;;;;;0.10;0.10;;;10.30;99.90;12.80;88045.00;;;;4994736;28;20203;-68
2022/04/24 05:30:09;;;;;;;0.10;0.10;;;10.40;99.90;12.80;88045.00;;;;4990242;28;20205;-68
2022/04/24 05:32:46;;;;;;;0.10;0.10;;;10.40;99.90;12.80;88045.00;;;;4993872;28;20210;-69
2022/04/24 05:35:15;;;;;;;0.10;0.10;;;10.50;1.00;12.80;88045.00;;;;4994401;28;20216;-69
2022/04/24 05:37:45;;;;;;;0.10;0.10;;;10.50;1.00;12.80;88045.00;;;;4989633;28;20197;-70
2022/04/24 05:40:13;;;;;;;0.10;0.10;;;10.50;1.00;12.80;88045.00;;;;4991665;28;20255;-69
2022/04/24 05:42:49;;;;;;;0.10;0.10;;;10.50;1.00;12.80;88045.00;;;;4994154;28;20220;-69
2022/04/24 05:45:19;;;;;;;0.10;0.10;;;10.60;1.00;12.80;88045.00;;;;4994417;28;20220;-70
2022/04/24 05:47:48;;;;;;;0.10;0.10;;;10.60;99.90;12.80;88045.00;;;;4994037;28;20551;-70
2022/04/24 05:50:17;;;;;;;0.10;0.10;;;10.70;1.00;12.80;88045.00;;;;4992948;28;20204;-70
2022/04/24 05:52:45;;;;;;;0.10;0.10;;;10.70;1.00;12.80;88045.00;;;;4994144;28;20203;-70
2022/04/24 05:55:13;;;;;;;0.10;0.10;;;10.80;1.00;12.80;88045.00;;;;4984096;28;20227;-71
2022/04/24 05:57:42;;;;;;;0.10;0.10;;;10.80;1.00;12.80;88045.00;;;;4979455;28;20204;-71
2022/04/24 06:00:12;;;;;;;0.10;0.10;;;10.90;1.00;12.80;88045.00;;;;4989646;28;20215;-68
2022/04/24 06:02:40;;;;;;;0.10;0.10;;;11.00;1.00;12.80;88045.00;;;;4993880;28;20223;-71
2022/04/24 06:05:11;;;;;;;0.10;0.10;;;11.00;1.00;12.80;88045.00;;;;4993938;28;20212;-68
2022/04/24 06:07:40;;;;;;;0.10;0.10;;;11.10;1.00;12.80;88045.00;;;;4993430;28;20204;-68
2022/04/24 06:10:11;;;;;;;0.10;0.10;;;11.20;1.00;12.80;88045.00;;;;4991431;28;20246;-68
2022/04/24 06:12:50;;;;;;;0.10;0.10;;;11.20;1.00;12.80;88045.00;;;;4991449;28;20200;-68
2022/04/24 06:15:21;;;;;;;0.10;0.10;;;11.20;1.00;12.80;88045.00;;;;4993231;28;20220;-69
2022/04/24 06:17:51;;;;;;;0.10;0.10;;;11.30;99.90;12.80;88045.00;;;;4993163;28;20673;-70
2022/04/24 06:20:23;;;;;;;0.10;0.10;;;11.30;1.00;12.80;88045.00;;;;4991801;28;20201;-68
2022/04/24 06:22:53;;;;;;;0.10;0.10;;;11.40;99.90;12.80;88045.00;;;;4993119;28;20212;-70
2022/04/24 06:25:23;;;;;;;0.10;0.10;;;11.50;1.00;12.80;88045.00;;;;4991934;28;20224;-70
2022/04/24 06:27:52;;;;;;;0.10;0.10;;;11.50;72.80;12.80;88045.00;;;;4978693;28;20201;-69
2022/04/24 06:30:24;;;;;;;0.10;0.10;;;11.40;80.80;12.80;88045.00;;;;4992291;28;20263;-70
2022/04/24 06:32:52;;;;;;;0.10;0.10;;;11.40;52.30;12.80;88045.00;;;;4993353;28;20260;-70
2022/04/24 06:35:22;;;;;;;0.10;0.10;;;11.40;64.80;12.80;88045.00;;;;4989065;28;20220;-70
2022/04/24 06:37:53;;;;;;;0.10;0.10;;;11.40;30.70;12.80;88045.00;;;;4989454;28;20251;-69
2022/04/24 06:40:24;;;;;;;0.10;0.10;;;11.40;1.00;12.80;88045.00;;;;4992366;28;20379;-69
2022/04/24 06:42:54;;;;;;;0.10;0.10;;;11.40;1.00;12.80;88045.00;;;;4983196;28;20610;-69
2022/04/24 06:45:25;;;;;;;0.10;0.10;;;11.50;1.00;12.80;88045.00;;;;4990632;28;20224;-70
2022/04/24 06:47:54;;;;;;;0.05;0.05;;;11.50;21.60;12.80;88045.00;;;;4992582;28;20540;-70
2022/04/24 06:50:26;;;;;;;0.10;0.10;;;11.60;6.00;12.80;88045.00;;;;4993005;28;20203;-70
2022/04/24 06:53:00;;;;;;;0.10;0.10;;;11.60;9.90;12.80;88045.00;;;;4984175;28;20201;-70
2022/04/24 06:55:28;;;;;;;0.10;0.10;;;11.60;49.80;12.80;88045.00;;;;4989156;28;20737;-69
2022/04/24 06:57:57;;;;;;;0.10;0.10;;;11.60;81.10;12.80;88045.00;;;;4987626;28;20204;-71
2022/04/24 07:00:28;;;;;;;0.10;0.10;;;11.60;65.20;12.80;88045.00;;;;4987677;28;20196;-68
2022/04/24 07:03:18;;;;;;;0.10;0.10;;;11.70;58.20;12.80;88045.00;;;;4992911;28;20299;-69
2022/04/24 07:05:49;;;;;;;0.10;0.10;;;11.70;59.10;12.80;88045.00;;;;4991904;28;20251;-70
2022/04/24 07:08:17;;;;;;;0.10;0.10;;;11.80;65.00;12.80;88045.00;;;;4977283;28;20189;-69
2022/04/24 07:10:45;;;;;;;0.10;0.10;;;11.80;68.20;12.80;88045.00;;;;4982093;28;20230;-69
2022/04/24 07:13:13;;;;;;;0.10;0.10;;;11.80;65.40;12.80;88045.00;;;;4986676;28;20208;-68
2022/04/24 07:15:41;;;;;;;0.10;0.10;;;11.80;1.00;12.80;88045.00;;;;4992851;28;20259;-68
2022/04/24 07:18:10;;;;;;;0.10;0.10;;;11.80;1.00;12.80;88045.00;;;;5000398;28;20200;-69
2022/04/24 07:20:39;;;;;;;0.10;0.10;;;11.80;1.00;12.80;88045.00;;;;5000140;28;20236;-69
2022/04/24 07:23:08;;;;;;;0.10;0.10;;;11.80;99.90;12.80;88045.00;;;;4998223;28;20501;-68
2022/04/24 07:25:40;;;;;;;0.10;0.10;;;11.90;1.00;12.80;88045.00;;;;4998888;28;20624;-69
2022/04/24 07:28:09;;;;;;;0.10;0.10;;;12.00;99.90;12.80;88045.00;;;;4998026;28;20572;-69
2022/04/24 07:30:37;;;;;;;0.10;0.10;;;12.00;1.00;12.80;88045.00;;;;4996861;28;20251;-69
2022/04/24 07:33:05;;;;;;;0.10;0.10;;;12.00;1.00;12.80;88045.00;;;;4998710;28;20207;-69
2022/04/24 07:35:36;;;;;;;0.10;0.10;;;12.00;1.00;12.80;88045.00;;;;4987846;28;20286;-71
2022/04/24 07:38:05;;;;;;;0.10;0.10;;;12.00;1.00;12.80;88045.00;;;;4976039;28;20677;-70
2022/04/24 07:40:36;;;;;;;0.10;0.10;;;12.00;1.00;12.80;88045.00;;;;4990254;28;20256;-70
2022/04/24 07:43:07;;;;;;;0.10;0.10;;;12.00;1.00;12.80;88045.00;;;;4992131;28;20224;-70
2022/04/24 07:45:38;;;;;;;0.10;0.10;;;12.00;1.00;12.80;88045.00;;;;4991597;28;20709;-70
2022/04/24 07:48:08;;;;;;;0.10;0.10;;;11.90;99.90;12.80;88045.00;;;;4992478;28;20189;-70
2022/04/24 07:50:39;;;;;;;0.10;0.10;;;12.00;99.90;12.80;88045.00;;;;4991869;28;20196;-70
2022/04/24 07:53:09;;;;;;;0.10;0.10;;;12.00;99.90;12.80;88045.00;;;;4984896;28;20608;-69
2022/04/24 07:55:42;;;;;;;0.10;0.10;;;12.00;99.90;12.80;88045.00;;;;4985093;28;20212;-69
2022/04/24 07:58:10;;;;;;;0.10;0.10;;;12.00;99.90;12.80;88045.00;;;;4975305;28;20297;-69
2022/04/24 08:00:40;;;;;;;0.10;0.10;;;12.00;99.90;12.80;88045.00;;;;4982568;28;20255;-69
2022/04/24 08:03:09;;;;;;;0.10;0.10;;;12.10;99.90;12.80;88045.00;;;;4991798;28;20697;-69
2022/04/24 08:05:42;;;;;;;0.10;0.10;;;12.10;99.90;12.80;88045.00;;;;4991906;28;20212;-70
2022/04/24 08:08:13;;;;;;;0.10;0.10;;;12.10;99.90;12.80;88045.00;;;;4987415;28;20204;-69
2022/04/24 08:10:48;;;;;;;0.10;0.10;;;12.10;1.00;12.80;88045.00;;;;4991885;28;20204;-69
2022/04/24 08:13:16;;;;;;;0.10;0.10;;;12.10;1.00;12.80;88045.00;;;;4990011;28;20208;-69
2022/04/24 08:15:45;;;;;;;0.10;0.10;;;12.10;99.90;12.80;88045.00;;;;4977811;28;20204;-69
2022/04/24 08:18:13;;;;;;;0.00;0.00;;;12.10;1.00;12.80;88045.00;;;;4986550;28;20208;-69
2022/04/24 08:20:43;;;;;;;0.10;0.10;;;12.10;1.00;12.80;88045.00;;;;4991936;28;20197;-69
2022/04/24 08:23:12;;;;;;;0.10;0.10;;;12.10;1.00;12.80;88045.00;;;;4977751;28;20230;-69
2022/04/24 08:25:40;;;;;;;0.03;0.03;;;12.00;1.00;12.80;88045.00;;;;4981605;28;20203;-69
2022/04/24 08:28:12;;;;;;;0.10;0.10;;;12.00;15.80;12.80;88045.00;;;;4991017;28;20247;-70
2022/04/24 08:30:42;;;;;;;0.10;0.10;;;12.10;99.90;12.80;88045.00;;;;4991484;28;20200;-70
2022/04/24 08:33:11;;;;;;;0.10;0.10;;;12.10;1.00;12.80;88045.00;;;;4991836;28;20684;-70
2022/04/24 08:35:40;;;;;;;0.10;0.10;;;12.10;1.00;12.80;88045.00;;;;4998018;28;20638;-72
2022/04/24 08:38:08;;;;;;;0.10;0.10;;;12.10;99.90;12.80;88045.00;;;;4979928;28;20252;-69
2022/04/24 08:40:36;;;;;;;0.10;0.10;;;12.10;1.00;12.80;88045.00;;;;4986175;28;20260;-70
2022/04/24 08:43:05;;;;;;;0.10;0.10;;;12.00;1.00;12.80;88045.00;;;;4982578;28;20196;-70
2022/04/24 08:45:34;;;;;;;0.00;0.00;;;12.00;99.90;12.80;88045.00;;;;4987644;28;20224;-70
2022/04/24 08:48:04;;;;;;;0.10;0.10;;;12.00;1.00;12.80;88045.00;;;;4994879;28;20200;-70
2022/04/24 08:50:34;;;;;;;0.10;0.10;;;12.00;28.20;12.80;88045.00;;;;4995791;28;20207;-71
2022/04/24 08:53:02;;;;;;;0.10;0.10;;;12.00;99.90;12.80;88045.00;;;;4999122;28;20204;-69
2022/04/24 08:55:32;;;;;;;0.10;0.10;;;12.00;1.00;12.80;88045.00;;;;4992131;28;20223;-69
2022/04/24 08:58:02;;;;;;;0.10;0.10;;;12.00;1.00;12.80;88045.00;;;;4994599;28;20197;-69
2022/04/24 09:00:30;;;;;;;0.10;0.10;;;12.00;99.90;12.80;88045.00;;;;4994999;28;20200;-70
2022/04/24 09:02:59;;;;;;;0.10;0.10;;;12.00;99.90;12.80;88045.00;;;;4995169;28;20258;-71
2022/04/24 09:05:30;;;;;;;0.10;0.10;;;12.00;1.00;12.80;88045.00;;;;4994701;28;20231;-71
2022/04/24 09:08:10;;;;;;;0.10;0.10;;;12.00;1.00;12.80;88045.00;;;;4989694;28;20193;-71
2022/04/24 09:10:59;;;;;;;0.10;0.10;;;12.00;18.30;12.80;88045.00;;;;4983311;28;20208;-71
2022/04/24 09:14:14;;;;;;;0.10;0.10;;;12.00;99.90;12.80;88045.00;;;;4981763;28;20209;-71
2022/04/24 09:16:34;;;;;;;0.10;0.10;;;12.00;99.90;12.80;88045.00;;;;4985393;28;20722;-70
2022/04/24 09:19:05;;;;;;;0.10;0.10;;;12.00;1.00;12.80;88045.00;;;;4982743;28;20209;-72
2022/04/24 09:21:33;;;;;;;0.10;0.10;;;12.00;1.00;12.80;88045.00;;;;4992485;28;20200;-70
2022/04/24 09:24:01;;;;;;;0.10;0.10;;;12.00;1.00;12.80;88045.00;;;;4981880;28;20216;-71
2022/04/24 09:26:29;;;;;;;0.10;0.10;;;12.00;99.90;12.80;88045.00;;;;4986803;28;20193;-71
2022/04/24 09:29:12;;;;;;;0.10;0.10;;;12.00;99.90;12.80;88045.00;;;;4989910;28;20199;-71
2022/04/24 09:31:45;;;;;;;0.10;0.10;;;12.00;99.90;12.80;88045.00;;;;4991766;28;20193;-71
2022/04/24 09:34:16;;;;;;;0.10;0.10;;;12.00;1.00;12.80;88045.00;;;;4985964;28;20220;-71
2022/04/24 09:36:45;;;;;;;0.10;0.10;;;11.90;1.00;12.80;88045.00;;;;4983506;28;20955;-71
2022/04/24 09:39:13;;;;;;;0.10;0.10;;;11.90;1.00;12.80;88045.00;;;;4985720;28;20266;-71
2022/04/24 09:41:41;;;;;;;0.10;0.10;;;11.80;1.00;12.80;88045.00;;;;4982842;28;20635;-71
2022/04/24 09:44:14;;;;;;;0.10;0.10;;;11.70;1.00;12.80;88045.00;;;;4986542;28;20220;-71
2022/04/24 09:46:43;;;;;;;0.10;0.10;;;11.60;1.00;12.80;88045.00;;;;4993089;28;20262;-70
2022/04/24 09:49:12;;;;;;;0.10;0.10;;;11.50;1.00;12.80;88045.00;;;;4989263;28;20204;-70
2022/04/24 09:51:43;;;;;;;0.10;0.10;;;11.40;99.90;12.80;88045.00;;;;4992616;28;20193;-71
2022/04/24 09:54:12;;;;;;;0.10;0.10;;;11.40;99.90;12.80;88045.00;;;;4992507;28;20224;-71
2022/04/24 09:56:41;;;;;;;0.00;0.00;;;11.40;99.90;12.80;88045.00;;;;4984534;28;20219;-71
2022/04/24 09:59:11;;;;;;;0.10;0.10;;;11.30;1.00;12.80;88045.00;;;;4993010;28;20279;-71
2022/04/24 10:01:39;;;;;;;0.10;0.10;;;11.30;1.00;12.80;88045.00;;;;4987890;28;20204;-71
2022/04/24 10:04:10;;;;;;;0.10;0.10;;;11.20;1.00;12.80;88045.00;;;;4984658;28;20217;-70
2022/04/24 10:06:40;;;;;;;0.10;0.10;;;11.10;1.00;12.80;88045.00;;;;4982001;28;20196;-71
2022/04/24 10:09:13;;;;;;;0.00;0.00;;;11.10;1.00;12.80;88045.00;;;;4989072;28;20696;-71
2022/04/24 10:11:41;;;;;;;0.10;0.10;;;11.00;1.00;12.80;88045.00;;;;4979331;28;20197;-71
2022/04/24 10:14:14;;;;;;;0.10;0.10;;;10.90;1.00;12.80;88045.00;;;;4990198;28;20640;-71
2022/04/24 10:17:28;;;;;;;0.10;0.10;;;10.90;1.00;12.80;88045.00;;;;4990317;28;20267;-71
2022/04/24 10:20:20;;;;;;;0.10;0.10;;;10.80;1.00;12.80;88045.00;;;;4985071;28;20208;-71
2022/04/24 10:22:50;;;;;;;0.10;0.10;;;10.80;1.00;12.80;88045.00;;;;4980017;28;20262;-71
2022/04/24 10:25:31;;;;;;;0.10;0.10;;;10.70;25.10;12.80;88045.00;;;;4984722;28;20220;-71
2022/04/24 10:28:13;;;;;;;0.10;0.10;;;10.70;99.90;12.80;88045.00;;;;4987322;28;20196;-71
2022/04/24 10:30:41;;;;;;;0.10;0.10;;;10.70;99.90;12.80;88045.00;;;;4995717;28;20204;-71
2022/04/24 10:33:22;;;;;;;0.10;0.10;;;10.70;99.90;12.80;88045.00;;;;4996366;28;20255;-73
2022/04/24 10:35:52;;;;;;;0.10;0.10;;;10.70;99.90;12.80;88045.00;;;;4993039;28;20196;-71
2022/04/24 10:38:23;;;;;;;0.10;0.10;;;10.60;99.90;12.80;88045.00;;;;4994574;28;20192;-71
2022/04/24 10:41:05;;;;;;;0.10;0.10;;;10.60;99.90;12.80;88045.00;;;;4989648;28;20199;-71
2022/04/24 10:43:39;;;;;;;0.10;0.10;;;10.60;99.90;12.80;88045.00;;;;4994301;28;20196;-71
2022/04/24 10:46:18;;;;;;;0.10;0.10;;;10.50;99.90;12.80;88045.00;;;;5003150;28;20234;-71
2022/04/24 10:48:48;;;;;;;0.10;0.10;;;10.60;99.90;12.80;88045.00;;;;4997064;28;20300;-70
2022/04/24 10:51:28;;;;;;;0.10;0.10;;;10.70;99.90;12.80;88045.00;;;;4993786;28;20211;-70
2022/04/24 10:53:59;;;;;;;0.10;0.10;;;10.70;99.90;12.80;88045.00;;;;4995328;28;20228;-70
2022/04/24 10:56:31;;;;;;;0.10;0.10;;;10.70;99.90;12.80;88045.00;;;;4997496;28;20208;-71
2022/04/24 10:59:08;;;;;;;0.10;0.10;;;10.70;99.90;12.80;88045.00;;;;4993870;28;20231;-71
2022/04/24 11:01:37;;;;;;;0.10;0.10;;;10.70;99.90;12.80;88045.00;;;;4982703;28;20200;-71
2022/04/24 11:04:08;;;;;;;0.10;0.10;;;10.70;99.90;12.80;88045.00;;;;4989468;28;20227;-71
2022/04/24 11:06:36;;;;;;;0.10;0.10;;;10.70;99.90;12.80;88045.00;;;;4985623;28;20216;-73
2022/04/24 11:09:09;;;;;;;0.10;0.10;;;10.60;99.90;12.80;88045.00;;;;4991742;28;20232;-71
2022/04/24 11:11:48;;;;;;;0.10;0.10;;;10.60;99.90;12.80;88045.00;;;;4990854;28;20196;-71